sensor_id;sensor_type;location;lat;lon;timestamp;pressure;altitude;pressure_sealevel;temperature;humidity
18819;BME280;9537;45.594;9.294;2023-02-19T00:00:56;100527.72;;;8.68;81.11
18819;BME280;9537;45.594;9.294;2023-02-19T00:01:57;100533.97;;;8.67;81.69
18819;BME280;9537;45.594;9.294;2023-02-19T00:03:00;100526.91;;;8.68;81.12
18819;BME280;9537;45.594;9.294;2023-02-19T00:04:04;100526.09;;;8.67;81.23
18819;BME280;9537;45.594;9.294;2023-02-19T00:05:06;100525.22;;;8.67;81.27
18819;BME280;9537;45.594;9.294;2023-02-19T00:06:09;100527.84;;;8.67;81.67
18819;BME280;9537;45.594;9.294;2023-02-19T00:07:10;100527.84;;;8.67;81.38
18819;BME280;9537;45.594;9.294;2023-02-19T00:08:13;100526.75;;;8.60;81.57
18819;BME280;9537;45.594;9.294;2023-02-19T00:09:15;100522.59;;;8.57;81.58
18819;BME280;9537;45.594;9.294;2023-02-19T00:10:17;100525.63;;;8.52;81.56
18819;BME280;9537;45.594;9.294;2023-02-19T00:11:20;100522.47;;;8.49;81.32
18819;BME280;9537;45.594;9.294;2023-02-19T00:12:23;100518.88;;;8.50;81.67
18819;BME280;9537;45.594;9.294;2023-02-19T00:13:24;100519.81;;;8.49;81.23
18819;BME280;9537;45.594;9.294;2023-02-19T00:14:26;100519.28;;;8.45;80.88
18819;BME280;9537;45.594;9.294;2023-02-19T00:15:30;100518.84;;;8.40;80.27
18819;BME280;9537;45.594;9.294;2023-02-19T00:16:34;100520.34;;;8.33;80.61
18819;BME280;9537;45.594;9.294;2023-02-19T00:17:36;100516.19;;;8.30;80.49
18819;BME280;9537;45.594;9.294;2023-02-19T00:18:38;100510.63;;;8.24;80.70
18819;BME280;9537;45.594;9.294;2023-02-19T00:19:41;100518.53;;;8.24;81.61
18819;BME280;9537;45.594;9.294;2023-02-19T00:20:42;100523.38;;;8.28;81.91
18819;BME280;9537;45.594;9.294;2023-02-19T00:21:44;100516.47;;;8.27;81.27
18819;BME280;9537;45.594;9.294;2023-02-19T00:22:45;100508.41;;;8.29;82.80
18819;BME280;9537;45.594;9.294;2023-02-19T00:23:48;100509.81;;;8.33;83.11
18819;BME280;9537;45.594;9.294;2023-02-19T00:24:50;100508.03;;;8.33;82.71
18819;BME280;9537;45.594;9.294;2023-02-19T00:25:52;100512.47;;;8.33;82.15
18819;BME280;9537;45.594;9.294;2023-02-19T00:26:53;100501.34;;;8.29;81.65
18819;BME280;9537;45.594;9.294;2023-02-19T00:27:55;100510.94;;;8.30;82.29
18819;BME280;9537;45.594;9.294;2023-02-19T00:28:57;100512.03;;;8.28;82.99
18819;BME280;9537;45.594;9.294;2023-02-19T00:29:59;100506.78;;;8.28;83.21
18819;BME280;9537;45.594;9.294;2023-02-19T00:31:04;100501.50;;;8.28;82.91
18819;BME280;9537;45.594;9.294;2023-02-19T00:32:07;100499.16;;;8.25;82.99
18819;BME280;9537;45.594;9.294;2023-02-19T00:33:08;100507.03;;;8.25;82.99
18819;BME280;9537;45.594;9.294;2023-02-19T00:34:11;100505.94;;;8.27;83.31
18819;BME280;9537;45.594;9.294;2023-02-19T00:35:14;100500.69;;;8.27;82.40
18819;BME280;9537;45.594;9.294;2023-02-19T00:36:15;100500.69;;;8.27;82.34
18819;BME280;9537;45.594;9.294;2023-02-19T00:37:17;100501.78;;;8.25;82.52
18819;BME280;9537;45.594;9.294;2023-02-19T00:38:19;100496.63;;;8.23;83.71
18819;BME280;9537;45.594;9.294;2023-02-19T00:39:20;100495.53;;;8.26;82.68
18819;BME280;9537;45.594;9.294;2023-02-19T00:40:22;100499.53;;;8.20;83.17
18819;BME280;9537;45.594;9.294;2023-02-19T00:41:25;100494.00;;;8.13;82.79
18819;BME280;9537;45.594;9.294;2023-02-19T00:42:28;100495.53;;;8.16;82.80
18819;BME280;9537;45.594;9.294;2023-02-19T00:43:29;100505.09;;;8.17;82.72
18819;BME280;9537;45.594;9.294;2023-02-19T00:44:31;100500.81;;;8.16;83.02
18819;BME280;9537;45.594;9.294;2023-02-19T00:45:32;100505.38;;;8.14;83.62
18819;BME280;9537;45.594;9.294;2023-02-19T00:46:37;100503.44;;;8.16;83.17
18819;BME280;9537;45.594;9.294;2023-02-19T00:47:38;100498.16;;;8.16;82.64
18819;BME280;9537;45.594;9.294;2023-02-19T00:48:40;100499.28;;;8.13;82.81
18819;BME280;9537;45.594;9.294;2023-02-19T00:49:42;100500.22;;;8.12;82.55
18819;BME280;9537;45.594;9.294;2023-02-19T00:50:44;100494.00;;;8.13;82.81
18819;BME280;9537;45.594;9.294;2023-02-19T00:51:46;100497.59;;;8.12;83.30
18819;BME280;9537;45.594;9.294;2023-02-19T00:52:48;100495.53;;;8.16;84.26
18819;BME280;9537;45.594;9.294;2023-02-19T00:53:49;100496.22;;;8.18;84.56
18819;BME280;9537;45.594;9.294;2023-02-19T00:54:51;100482.81;;;8.21;84.95
18819;BME280;9537;45.594;9.294;2023-02-19T00:55:52;100498.72;;;8.20;85.25
18819;BME280;9537;45.594;9.294;2023-02-19T00:56:54;100499.53;;;8.10;85.29
18819;BME280;9537;45.594;9.294;2023-02-19T00:57:55;100491.38;;;8.13;85.21
18819;BME280;9537;45.594;9.294;2023-02-19T00:58:57;100494.84;;;8.14;84.74
18819;BME280;9537;45.594;9.294;2023-02-19T00:59:58;100487.78;;;8.15;85.43
18819;BME280;9537;45.594;9.294;2023-02-19T01:01:00;100493.47;;;8.20;85.97
18819;BME280;9537;45.594;9.294;2023-02-19T01:02:01;100494.00;;;8.23;85.78
18819;BME280;9537;45.594;9.294;2023-02-19T01:03:03;100490.72;;;8.21;85.79
18819;BME280;9537;45.594;9.294;2023-02-19T01:04:05;100487.38;;;8.19;84.45
18819;BME280;9537;45.594;9.294;2023-02-19T01:05:08;100494.16;;;8.22;84.73
18819;BME280;9537;45.594;9.294;2023-02-19T01:06:12;100488.06;;;8.21;85.60
18819;BME280;9537;45.594;9.294;2023-02-19T01:07:14;100484.59;;;8.21;85.96
18819;BME280;9537;45.594;9.294;2023-02-19T01:08:17;100488.75;;;8.23;85.86
18819;BME280;9537;45.594;9.294;2023-02-19T01:09:19;100488.47;;;8.26;86.47
18819;BME280;9537;45.594;9.294;2023-02-19T01:10:20;100487.66;;;8.26;86.43
18819;BME280;9537;45.594;9.294;2023-02-19T01:11:22;100478.53;;;8.30;86.44
18819;BME280;9537;45.594;9.294;2023-02-19T01:12:24;100484.63;;;8.30;86.09
18819;BME280;9537;45.594;9.294;2023-02-19T01:13:25;100476.56;;;8.32;84.74
18819;BME280;9537;45.594;9.294;2023-02-19T01:14:27;100473.38;;;8.28;84.23
18819;BME280;9537;45.594;9.294;2023-02-19T01:15:28;100478.91;;;8.25;83.81
18819;BME280;9537;45.594;9.294;2023-02-19T01:16:32;100489.28;;;8.27;84.36
18819;BME280;9537;45.594;9.294;2023-02-19T01:17:34;100484.03;;;8.27;83.85
18819;BME280;9537;45.594;9.294;2023-02-19T01:18:37;100481.41;;;8.27;84.23
18819;BME280;9537;45.594;9.294;2023-02-19T01:19:38;100484.47;;;8.22;83.72
18819;BME280;9537;45.594;9.294;2023-02-19T01:20:43;100478.50;;;8.20;82.45
18819;BME280;9537;45.594;9.294;2023-02-19T01:21:44;100482.94;;;8.20;83.39
18819;BME280;9537;45.594;9.294;2023-02-19T01:22:46;100480.56;;;8.17;83.39
18819;BME280;9537;45.594;9.294;2023-02-19T01:23:47;100479.16;;;8.12;83.60
18819;BME280;9537;45.594;9.294;2023-02-19T01:24:50;100481.94;;;8.11;83.88
18819;BME280;9537;45.594;9.294;2023-02-19T01:25:50;100471.44;;;8.11;82.52
18819;BME280;9537;45.594;9.294;2023-02-19T01:26:52;100479.44;;;8.09;82.76
18819;BME280;9537;45.594;9.294;2023-02-19T01:27:53;100476.00;;;8.09;83.26
18819;BME280;9537;45.594;9.294;2023-02-19T01:28:57;100472.81;;;8.05;81.91
18819;BME280;9537;45.594;9.294;2023-02-19T01:29:58;100471.97;;;8.05;82.44
18819;BME280;9537;45.594;9.294;2023-02-19T01:31:01;100477.38;;;8.03;82.21
18819;BME280;9537;45.594;9.294;2023-02-19T01:32:02;100472.38;;;8.00;81.63
18819;BME280;9537;45.594;9.294;2023-02-19T01:33:05;100476.00;;;7.99;82.54
18819;BME280;9537;45.594;9.294;2023-02-19T01:34:08;100480.00;;;7.94;82.12
18819;BME280;9537;45.594;9.294;2023-02-19T01:35:11;100473.91;;;7.93;82.33
18819;BME280;9537;45.594;9.294;2023-02-19T01:36:13;100468.75;;;7.92;82.93
18819;BME280;9537;45.594;9.294;2023-02-19T01:37:15;100471.41;;;7.92;82.27
18819;BME280;9537;45.594;9.294;2023-02-19T01:38:16;100469.75;;;7.90;81.67
18819;BME280;9537;45.594;9.294;2023-02-19T01:39:18;100469.88;;;7.89;82.44
18819;BME280;9537;45.594;9.294;2023-02-19T01:40:19;100468.22;;;7.88;81.81
18819;BME280;9537;45.594;9.294;2023-02-19T01:41:23;100464.47;;;7.90;83.03
18819;BME280;9537;45.594;9.294;2023-02-19T01:42:25;100466.97;;;7.92;83.52
18819;BME280;9537;45.594;9.294;2023-02-19T01:43:27;100457.97;;;7.95;83.59
18819;BME280;9537;45.594;9.294;2023-02-19T01:46:19;100465.59;;;7.88;83.89
18819;BME280;9537;45.594;9.294;2023-02-19T01:47:20;100457.69;;;7.88;82.96
18819;BME280;9537;45.594;9.294;2023-02-19T01:48:25;100460.03;;;7.81;83.65
18819;BME280;9537;45.594;9.294;2023-02-19T01:49:29;100457.25;;;7.83;83.39
18819;BME280;9537;45.594;9.294;2023-02-19T01:50:36;100456.56;;;7.81;83.74
18819;BME280;9537;45.594;9.294;2023-02-19T01:51:42;100461.97;;;7.79;81.91
18819;BME280;9537;45.594;9.294;2023-02-19T01:52:45;100453.63;;;7.74;80.71
18819;BME280;9537;45.594;9.294;2023-02-19T01:53:52;100456.25;;;7.64;80.13
18819;BME280;9537;45.594;9.294;2023-02-19T01:54:55;100452.63;;;7.56;80.09
18819;BME280;9537;45.594;9.294;2023-02-19T01:55:58;100458.84;;;7.55;79.86
18819;BME280;9537;45.594;9.294;2023-02-19T01:57:03;100458.00;;;7.54;80.42
18819;BME280;9537;45.594;9.294;2023-02-19T01:58:07;100449.41;;;7.52;81.59
18819;BME280;9537;45.594;9.294;2023-02-19T01:59:10;100451.50;;;7.49;81.98
18819;BME280;9537;45.594;9.294;2023-02-19T02:00:14;100453.56;;;7.45;81.66
18819;BME280;9537;45.594;9.294;2023-02-19T02:01:16;100456.19;;;7.45;82.30
18819;BME280;9537;45.594;9.294;2023-02-19T02:02:17;100454.28;;;7.47;83.54
18819;BME280;9537;45.594;9.294;2023-02-19T02:03:19;100454.38;;;7.45;83.43
18819;BME280;9537;45.594;9.294;2023-02-19T02:04:21;100451.38;;;7.50;84.05
18819;BME280;9537;45.594;9.294;2023-02-19T02:05:31;100448.03;;;7.48;83.12
18819;BME280;9537;45.594;9.294;2023-02-19T02:06:41;100447.34;;;7.46;84.06
18819;BME280;9537;45.594;9.294;2023-02-19T02:07:45;100441.13;;;7.47;84.92
18819;BME280;9537;45.594;9.294;2023-02-19T02:09:04;100434.06;;;7.48;84.32
18819;BME280;9537;45.594;9.294;2023-02-19T02:10:24;100437.66;;;7.47;84.82
18819;BME280;9537;45.594;9.294;2023-02-19T02:11:25;100436.13;;;7.44;84.47
18819;BME280;9537;45.594;9.294;2023-02-19T02:12:28;100434.19;;;7.46;84.55
18819;BME280;9537;45.594;9.294;2023-02-19T02:13:30;100432.66;;;7.43;85.93
18819;BME280;9537;45.594;9.294;2023-02-19T02:14:35;100435.00;;;7.47;84.91
18819;BME280;9537;45.594;9.294;2023-02-19T02:15:44;100434.91;;;7.48;84.19
18819;BME280;9537;45.594;9.294;2023-02-19T02:16:54;100430.63;;;7.47;83.99
18819;BME280;9537;45.594;9.294;2023-02-19T02:19:16;100430.56;;;7.37;82.46
18819;BME280;9537;45.594;9.294;2023-02-19T02:20:32;100436.66;;;7.38;83.38
18819;BME280;9537;45.594;9.294;2023-02-19T02:21:59;100429.47;;;7.40;82.84
18819;BME280;9537;45.594;9.294;2023-02-19T02:23:07;100431.81;;;7.33;82.04
18819;BME280;9537;45.594;9.294;2023-02-19T02:24:23;100431.47;;;7.27;80.79
18819;BME280;9537;45.594;9.294;2023-02-19T02:27:15;100430.47;;;7.18;81.97
18819;BME280;9537;45.594;9.294;2023-02-19T02:28:33;100436.31;;;7.21;81.72
18819;BME280;9537;45.594;9.294;2023-02-19T02:30:04;100436.44;;;7.20;81.30
18819;BME280;9537;45.594;9.294;2023-02-19T02:31:12;100431.91;;;7.22;82.09
18819;BME280;9537;45.594;9.294;2023-02-19T02:32:18;100433.56;;;7.23;82.18
18819;BME280;9537;45.594;9.294;2023-02-19T02:33:27;100430.38;;;7.19;83.22
18819;BME280;9537;45.594;9.294;2023-02-19T02:34:36;100429.97;;;7.24;83.52
18819;BME280;9537;45.594;9.294;2023-02-19T02:35:43;100430.66;;;7.26;83.58
18819;BME280;9537;45.594;9.294;2023-02-19T02:36:49;100428.19;;;7.25;83.82
18819;BME280;9537;45.594;9.294;2023-02-19T02:37:54;100428.31;;;7.23;83.77
18819;BME280;9537;45.594;9.294;2023-02-19T02:38:59;100422.78;;;7.26;85.25
18819;BME280;9537;45.594;9.294;2023-02-19T02:40:04;100424.31;;;7.29;85.17
18819;BME280;9537;45.594;9.294;2023-02-19T02:41:07;100415.31;;;7.21;84.20
18819;BME280;9537;45.594;9.294;2023-02-19T02:42:09;100416.97;;;7.22;82.92
18819;BME280;9537;45.594;9.294;2023-02-19T02:43:28;100416.97;;;7.22;83.14
18819;BME280;9537;45.594;9.294;2023-02-19T02:44:33;100421.25;;;7.23;84.71
18819;BME280;9537;45.594;9.294;2023-02-19T02:45:35;100411.81;;;7.21;86.14
18819;BME280;9537;45.594;9.294;2023-02-19T02:46:40;100410.72;;;7.23;85.18
18819;BME280;9537;45.594;9.294;2023-02-19T02:47:48;100412.09;;;7.18;82.94
18819;BME280;9537;45.594;9.294;2023-02-19T02:48:52;100409.34;;;7.19;82.19
18819;BME280;9537;45.594;9.294;2023-02-19T02:49:57;100406.00;;;7.17;82.87
18819;BME280;9537;45.594;9.294;2023-02-19T02:51:10;100407.00;;;7.16;83.34
18819;BME280;9537;45.594;9.294;2023-02-19T02:52:14;100406.00;;;7.17;83.03
18819;BME280;9537;45.594;9.294;2023-02-19T02:53:40;100405.72;;;7.11;82.89
18819;BME280;9537;45.594;9.294;2023-02-19T02:55:06;100400.59;;;7.09;83.18
18819;BME280;9537;45.594;9.294;2023-02-19T02:56:09;100400.59;;;7.09;83.20
18819;BME280;9537;45.594;9.294;2023-02-19T02:57:13;100400.84;;;7.06;84.03
18819;BME280;9537;45.594;9.294;2023-02-19T02:58:16;100401.56;;;7.08;83.80
18819;BME280;9537;45.594;9.294;2023-02-19T02:59:21;100408.34;;;7.11;84.56
18819;BME280;9537;45.594;9.294;2023-02-19T03:00:25;100404.75;;;7.12;84.13
18819;BME280;9537;45.594;9.294;2023-02-19T03:01:51;100407.63;;;7.09;85.07
18819;BME280;9537;45.594;9.294;2023-02-19T03:03:12;100399.63;;;7.10;84.46
18819;BME280;9537;45.594;9.294;2023-02-19T03:04:20;100396.19;;;7.10;83.55
18819;BME280;9537;45.594;9.294;2023-02-19T03:05:25;100400.16;;;7.04;83.91
18819;BME280;9537;45.594;9.294;2023-02-19T03:06:47;100397.09;;;6.99;83.45
18819;BME280;9537;45.594;9.294;2023-02-19T03:07:53;100391.59;;;7.02;82.29
18819;BME280;9537;45.594;9.294;2023-02-19T03:09:00;100394.59;;;6.97;81.94
18819;BME280;9537;45.594;9.294;2023-02-19T03:10:05;100392.94;;;6.96;81.75
18819;BME280;9537;45.594;9.294;2023-02-19T03:11:09;100394.84;;;6.94;82.09
18819;BME280;9537;45.594;9.294;2023-02-19T03:12:29;100397.63;;;6.93;82.55
18819;BME280;9537;45.594;9.294;2023-02-19T03:13:53;100397.63;;;6.93;83.09
18819;BME280;9537;45.594;9.294;2023-02-19T03:15:16;100397.91;;;6.90;82.75
18819;BME280;9537;45.594;9.294;2023-02-19T03:16:37;100395.66;;;6.85;82.09
18819;BME280;9537;45.594;9.294;2023-02-19T03:18:01;100401.28;;;6.81;82.05
18819;BME280;9537;45.594;9.294;2023-02-19T03:19:24;100396.03;;;6.81;82.24
18819;BME280;9537;45.594;9.294;2023-02-19T03:20:26;100396.03;;;6.81;82.73
18819;BME280;9537;45.594;9.294;2023-02-19T03:21:28;100395.09;;;6.82;83.62
18819;BME280;9537;45.594;9.294;2023-02-19T03:22:32;100402.50;;;6.76;82.29
18819;BME280;9537;45.594;9.294;2023-02-19T03:23:34;100406.94;;;6.76;82.38
18819;BME280;9537;45.594;9.294;2023-02-19T03:24:58;100397.91;;;6.69;82.03
18819;BME280;9537;45.594;9.294;2023-02-19T03:26:20;100401.03;;;6.63;82.03
18819;BME280;9537;45.594;9.294;2023-02-19T03:27:25;100397.59;;;6.62;82.09
18819;BME280;9537;45.594;9.294;2023-02-19T03:28:32;100388.91;;;6.62;82.17
18819;BME280;9537;45.594;9.294;2023-02-19T03:29:54;100391.38;;;6.63;82.31
18819;BME280;9537;45.594;9.294;2023-02-19T03:30:58;100389.56;;;6.64;83.17
18819;BME280;9537;45.594;9.294;2023-02-19T03:32:02;100384.22;;;6.65;82.72
18819;BME280;9537;45.594;9.294;2023-02-19T03:33:08;100386.72;;;6.67;83.09
18819;BME280;9537;45.594;9.294;2023-02-19T03:34:15;100388.94;;;6.71;83.70
18819;BME280;9537;45.594;9.294;2023-02-19T03:35:19;100385.59;;;6.69;83.98
18819;BME280;9537;45.594;9.294;2023-02-19T03:36:23;100379.41;;;6.70;83.57
18819;BME280;9537;45.594;9.294;2023-02-19T03:37:29;100392.53;;;6.70;83.39
18819;BME280;9537;45.594;9.294;2023-02-19T03:38:37;100395.53;;;6.66;83.55
18819;BME280;9537;45.594;9.294;2023-02-19T03:39:40;100389.00;;;6.60;82.29
18819;BME280;9537;45.594;9.294;2023-02-19T03:40:52;100385.56;;;6.60;82.43
18819;BME280;9537;45.594;9.294;2023-02-19T03:42:00;100389.28;;;6.57;82.75
18819;BME280;9537;45.594;9.294;2023-02-19T03:43:13;100385.72;;;6.58;82.71
18819;BME280;9537;45.594;9.294;2023-02-19T03:44:24;100385.81;;;6.57;83.29
18819;BME280;9537;45.594;9.294;2023-02-19T03:45:37;100389.16;;;6.59;83.40
18819;BME280;9537;45.594;9.294;2023-02-19T03:46:44;100387.63;;;6.56;83.34
18819;BME280;9537;45.594;9.294;2023-02-19T03:47:50;100389.69;;;6.52;83.02
18819;BME280;9537;45.594;9.294;2023-02-19T03:48:58;100384.28;;;6.54;83.23
18819;BME280;9537;45.594;9.294;2023-02-19T03:50:07;100382.47;;;6.54;83.03
18819;BME280;9537;45.594;9.294;2023-02-19T03:51:26;100385.38;;;6.51;81.81
18819;BME280;9537;45.594;9.294;2023-02-19T03:52:39;100386.34;;;6.50;81.07
18819;BME280;9537;45.594;9.294;2023-02-19T03:53:48;100383.81;;;6.49;80.76
18819;BME280;9537;45.594;9.294;2023-02-19T03:54:56;100394.47;;;6.47;81.06
18819;BME280;9537;45.594;9.294;2023-02-19T03:56:07;100391.97;;;6.46;80.74
18819;BME280;9537;45.594;9.294;2023-02-19T03:57:16;100400.66;;;6.46;80.72
18819;BME280;9537;45.594;9.294;2023-02-19T03:58:24;100396.38;;;6.45;80.36
18819;BME280;9537;45.594;9.294;2023-02-19T03:59:33;100398.19;;;6.45;80.84
18819;BME280;9537;45.594;9.294;2023-02-19T04:00:43;100397.22;;;6.46;81.29
18819;BME280;9537;45.594;9.294;2023-02-19T04:01:53;100386.59;;;6.47;81.82
18819;BME280;9537;45.594;9.294;2023-02-19T04:02:57;100391.97;;;6.46;81.81
18819;BME280;9537;45.594;9.294;2023-02-19T04:04:08;100390.41;;;6.43;82.12
18819;BME280;9537;45.594;9.294;2023-02-19T04:05:15;100389.59;;;6.43;82.31
18819;BME280;9537;45.594;9.294;2023-02-19T04:06:22;100385.06;;;6.45;82.53
18819;BME280;9537;45.594;9.294;2023-02-19T04:07:26;100396.28;;;6.47;83.06
18819;BME280;9537;45.594;9.294;2023-02-19T04:08:30;100394.72;;;6.44;82.48
18819;BME280;9537;45.594;9.294;2023-02-19T04:09:36;100394.59;;;6.46;82.73
18819;BME280;9537;45.594;9.294;2023-02-19T04:10:38;100397.22;;;6.46;82.26
18819;BME280;9537;45.594;9.294;2023-02-19T04:11:40;100389.47;;;6.44;82.01
18819;BME280;9537;45.594;9.294;2023-02-19T04:12:46;100395.41;;;6.46;81.92
18819;BME280;9537;45.594;9.294;2023-02-19T04:13:54;100402.47;;;6.46;81.41
18819;BME280;9537;45.594;9.294;2023-02-19T04:15:01;100395.94;;;6.40;81.16
18819;BME280;9537;45.594;9.294;2023-02-19T04:16:06;100404.06;;;6.37;80.50
18819;BME280;9537;45.594;9.294;2023-02-19T04:17:14;100402.78;;;6.31;80.66
18819;BME280;9537;45.594;9.294;2023-02-19T04:18:21;100403.66;;;6.21;81.49
18819;BME280;9537;45.594;9.294;2023-02-19T04:19:28;100405.59;;;6.19;81.34
18819;BME280;9537;45.594;9.294;2023-02-19T04:20:33;100400.34;;;6.19;81.82
18819;BME280;9537;45.594;9.294;2023-02-19T04:21:38;100399.63;;;6.17;81.40
18819;BME280;9537;45.594;9.294;2023-02-19T04:22:40;100396.91;;;6.18;80.80
18819;BME280;9537;45.594;9.294;2023-02-19T04:23:44;100396.19;;;6.16;81.19
18819;BME280;9537;45.594;9.294;2023-02-19T04:24:48;100395.22;;;6.17;80.96
18819;BME280;9537;45.594;9.294;2023-02-19T04:25:55;100399.06;;;6.13;81.23
18819;BME280;9537;45.594;9.294;2023-02-19T04:26:58;100395.72;;;6.11;80.84
18819;BME280;9537;45.594;9.294;2023-02-19T04:28:01;100397.38;;;6.12;81.38
18819;BME280;9537;45.594;9.294;2023-02-19T04:29:02;100391.44;;;6.10;81.01
18819;BME280;9537;45.594;9.294;2023-02-19T04:30:06;100394.19;;;6.08;80.67
18819;BME280;9537;45.594;9.294;2023-02-19T04:31:09;100398.69;;;6.06;81.33
18819;BME280;9537;45.594;9.294;2023-02-19T04:32:12;100399.56;;;6.07;81.48
18819;BME280;9537;45.594;9.294;2023-02-19T04:33:14;100392.53;;;6.07;82.53
18819;BME280;9537;45.594;9.294;2023-02-19T04:34:15;100399.56;;;6.07;82.82
18819;BME280;9537;45.594;9.294;2023-02-19T04:35:18;100398.59;;;6.08;83.07
18819;BME280;9537;45.594;9.294;2023-02-19T04:36:20;100396.53;;;6.12;83.18
18819;BME280;9537;45.594;9.294;2023-02-19T04:37:21;100395.59;;;6.13;82.39
18819;BME280;9537;45.594;9.294;2023-02-19T04:38:23;100396.28;;;6.15;82.69
18819;BME280;9537;45.594;9.294;2023-02-19T04:39:24;100392.97;;;6.13;83.37
18819;BME280;9537;45.594;9.294;2023-02-19T04:40:26;100393.41;;;6.18;83.32
18819;BME280;9537;45.594;9.294;2023-02-19T04:41:27;100401.03;;;6.21;82.58
18819;BME280;9537;45.594;9.294;2023-02-19T04:42:28;100396.50;;;6.23;82.96
18819;BME280;9537;45.594;9.294;2023-02-19T04:43:29;100406.06;;;6.24;83.35
18819;BME280;9537;45.594;9.294;2023-02-19T04:44:32;100402.56;;;6.23;83.19
18819;BME280;9537;45.594;9.294;2023-02-19T04:45:33;100405.91;;;6.25;82.74
18819;BME280;9537;45.594;9.294;2023-02-19T04:46:35;100402.47;;;6.25;82.51
18819;BME280;9537;45.594;9.294;2023-02-19T04:47:36;100399.56;;;6.28;82.10
18819;BME280;9537;45.594;9.294;2023-02-19T04:48:38;100401.47;;;6.26;82.71
18819;BME280;9537;45.594;9.294;2023-02-19T04:49:39;100401.38;;;6.27;82.81
18819;BME280;9537;45.594;9.294;2023-02-19T04:50:42;100392.53;;;6.28;82.99
18819;BME280;9537;45.594;9.294;2023-02-19T04:51:43;100399.44;;;6.29;83.06
18819;BME280;9537;45.594;9.294;2023-02-19T04:52:45;100398.75;;;6.27;83.56
18819;BME280;9537;45.594;9.294;2023-02-19T04:53:46;100399.00;;;6.24;82.87
18819;BME280;9537;45.594;9.294;2023-02-19T04:54:48;100400.81;;;6.24;82.65
18819;BME280;9537;45.594;9.294;2023-02-19T04:55:50;100405.19;;;6.23;82.81
18819;BME280;9537;45.594;9.294;2023-02-19T04:56:53;100395.66;;;6.22;82.03
18819;BME280;9537;45.594;9.294;2023-02-19T04:57:53;100396.63;;;6.21;81.76
18819;BME280;9537;45.594;9.294;2023-02-19T04:58:56;100394.13;;;6.20;81.69
18819;BME280;9537;45.594;9.294;2023-02-19T04:59:57;100398.41;;;6.21;82.15
18819;BME280;9537;45.594;9.294;2023-02-19T05:00:59;100392.59;;;6.17;81.45
18819;BME280;9537;45.594;9.294;2023-02-19T05:02:00;100393.41;;;6.18;82.50
18819;BME280;9537;45.594;9.294;2023-02-19T05:03:03;100401.16;;;6.19;83.11
18819;BME280;9537;45.594;9.294;2023-02-19T05:04:04;100402.81;;;6.20;82.12
18819;BME280;9537;45.594;9.294;2023-02-19T05:05:06;100409.03;;;6.19;81.99
18819;BME280;9537;45.594;9.294;2023-02-19T05:06:10;100390.09;;;6.16;82.36
18819;BME280;9537;45.594;9.294;2023-02-19T05:07:12;100390.78;;;6.18;82.38
18819;BME280;9537;45.594;9.294;2023-02-19T05:08:13;100397.38;;;6.12;82.19
18819;BME280;9537;45.594;9.294;2023-02-19T05:09:16;100394.31;;;6.07;81.34
18819;BME280;9537;45.594;9.294;2023-02-19T05:10:17;100392.78;;;6.04;80.85
18819;BME280;9537;45.594;9.294;2023-02-19T05:11:19;100391.09;;;6.03;81.27
18819;BME280;9537;45.594;9.294;2023-02-19T05:12:20;100393.59;;;6.05;80.81
18819;BME280;9537;45.594;9.294;2023-02-19T05:13:22;100395.50;;;6.03;79.97
18819;BME280;9537;45.594;9.294;2023-02-19T05:14:23;100384.31;;;6.01;79.08
18819;BME280;9537;45.594;9.294;2023-02-19T05:15:25;100384.44;;;5.99;79.20
18819;BME280;9537;45.594;9.294;2023-02-19T05:16:26;100378.47;;;5.97;79.94
18819;BME280;9537;45.594;9.294;2023-02-19T05:17:28;100385.41;;;5.98;80.46
18819;BME280;9537;45.594;9.294;2023-02-19T05:18:30;100382.06;;;5.96;80.73
18819;BME280;9537;45.594;9.294;2023-02-19T05:19:32;100377.81;;;5.95;80.11
18819;BME280;9537;45.594;9.294;2023-02-19T05:20:33;100383.16;;;5.94;79.45
18819;BME280;9537;45.594;9.294;2023-02-19T05:21:37;100380.75;;;5.91;79.49
18819;BME280;9537;45.594;9.294;2023-02-19T05:22:39;100386.34;;;5.86;80.13
18819;BME280;9537;45.594;9.294;2023-02-19T05:23:41;100385.53;;;5.85;80.38
18819;BME280;9537;45.594;9.294;2023-02-19T05:24:42;100380.53;;;5.82;80.58
18819;BME280;9537;45.594;9.294;2023-02-19T05:25:44;100380.78;;;5.79;80.05
18819;BME280;9537;45.594;9.294;2023-02-19T05:26:45;100388.66;;;5.79;80.32
18819;BME280;9537;45.594;9.294;2023-02-19T05:27:47;100389.25;;;5.72;81.09
18819;BME280;9537;45.594;9.294;2023-02-19T05:28:50;100385.00;;;5.71;80.59
18819;BME280;9537;45.594;9.294;2023-02-19T05:29:52;100392.50;;;5.75;80.40
18819;BME280;9537;45.594;9.294;2023-02-19T05:30:54;100397.72;;;5.75;80.20
18819;BME280;9537;45.594;9.294;2023-02-19T05:31:57;100394.50;;;5.72;80.62
18819;BME280;9537;45.594;9.294;2023-02-19T05:32:58;100392.72;;;5.72;80.19
18819;BME280;9537;45.594;9.294;2023-02-19T05:34:00;100393.31;;;5.76;79.94
18819;BME280;9537;45.594;9.294;2023-02-19T05:35:03;100394.16;;;5.76;80.00
18819;BME280;9537;45.594;9.294;2023-02-19T05:36:05;100404.63;;;5.76;79.73
18819;BME280;9537;45.594;9.294;2023-02-19T05:37:09;100391.53;;;5.76;79.74
18819;BME280;9537;45.594;9.294;2023-02-19T05:38:10;100396.78;;;5.76;79.42
18819;BME280;9537;45.594;9.294;2023-02-19T05:39:12;100391.88;;;5.72;78.97
18819;BME280;9537;45.594;9.294;2023-02-19T05:40:13;100390.34;;;5.69;78.82
18819;BME280;9537;45.594;9.294;2023-02-19T05:41:16;100393.22;;;5.66;79.07
18819;BME280;9537;45.594;9.294;2023-02-19T05:42:17;100390.72;;;5.64;78.92
18819;BME280;9537;45.594;9.294;2023-02-19T05:43:20;100394.19;;;5.54;79.09
18819;BME280;9537;45.594;9.294;2023-02-19T05:44:20;100392.53;;;5.53;79.24
18819;BME280;9537;45.594;9.294;2023-02-19T05:45:22;100395.28;;;5.51;79.75
18819;BME280;9537;45.594;9.294;2023-02-19T05:46:27;100388.25;;;5.52;81.00
18819;BME280;9537;45.594;9.294;2023-02-19T05:47:30;100392.53;;;5.53;81.26
18819;BME280;9537;45.594;9.294;2023-02-19T05:48:31;100390.84;;;5.52;81.85
18819;BME280;9537;45.594;9.294;2023-02-19T05:49:33;100384.69;;;5.53;81.02
18819;BME280;9537;45.594;9.294;2023-02-19T05:50:35;100388.25;;;5.52;80.94
18819;BME280;9537;45.594;9.294;2023-02-19T05:51:37;100387.66;;;5.48;80.70
18819;BME280;9537;45.594;9.294;2023-02-19T05:52:39;100383.13;;;5.50;81.25